createdAt,value
2017-11-17T00:01:50.209Z,1.22
2017-11-17T00:04:17.776Z,1.20
2017-11-17T00:06:45.362Z,1.16
2017-11-17T00:09:13.033Z,1.26
2017-11-17T00:11:40.590Z,1.23
2017-11-17T00:14:08.199Z,1.18
2017-11-17T00:16:35.785Z,1.25
2017-11-17T00:19:03.399Z,1.20
2017-11-17T00:21:30.972Z,1.24
2017-11-17T00:23:58.598Z,1.26
2017-11-17T00:26:26.174Z,1.21
2017-11-17T00:28:53.717Z,1.21
2017-11-17T00:31:21.292Z,1.29
2017-11-17T00:33:48.917Z,1.27
2017-11-17T00:36:16.491Z,1.36
2017-11-17T00:38:44.055Z,1.18
2017-11-17T00:41:11.631Z,1.18
2017-11-17T00:43:39.216Z,1.17
2017-11-17T00:46:06.774Z,1.17
2017-11-17T00:48:34.358Z,1.17
2017-11-17T00:51:01.942Z,1.18
2017-11-17T00:53:29.492Z,1.29
2017-11-17T00:55:57.101Z,1.26
2017-11-17T00:58:24.647Z,1.23
2017-11-17T01:00:52.204Z,1.13
2017-11-17T01:03:19.766Z,1.10
2017-11-17T01:05:47.318Z,1.14
2017-11-17T01:08:14.916Z,1.03
2017-11-17T01:10:42.517Z,1.01
2017-11-17T01:13:10.078Z,1.11
2017-11-17T01:15:37.654Z,1.07
2017-11-17T01:18:05.468Z,1.08
2017-11-17T01:20:33.037Z,1.04
2017-11-17T01:23:00.647Z,1.14
2017-11-17T01:25:28.195Z,1.02
2017-11-17T01:27:55.780Z,1.12
2017-11-17T01:30:23.363Z,1.13
2017-11-17T01:32:50.945Z,1.07
2017-11-17T01:35:18.499Z,1.00
2017-11-17T01:37:46.102Z,0.99
2017-11-17T01:40:13.675Z,1.09
2017-11-17T01:42:41.247Z,1.14
2017-11-17T01:45:09.173Z,1.08
2017-11-17T01:47:36.724Z,1.03
2017-11-17T01:50:04.316Z,1.04
2017-11-17T01:52:31.884Z,1.01
2017-11-17T01:54:59.472Z,1.03
2017-11-17T01:57:27.059Z,1.12
2017-11-17T01:59:54.642Z,1.15
2017-11-17T02:02:22.279Z,1.07
2017-11-17T02:04:49.870Z,1.04
2017-11-17T02:07:17.703Z,1.08
2017-11-17T02:09:45.291Z,1.09
2017-11-17T02:12:12.881Z,1.04
2017-11-17T02:14:40.450Z,0.99
2017-11-17T02:17:08.134Z,0.97
2017-11-17T02:19:35.693Z,0.99
2017-11-17T02:22:03.257Z,0.98
2017-11-17T02:24:30.864Z,0.95
2017-11-17T02:26:58.437Z,0.91
2017-11-17T02:29:26.036Z,0.97
2017-11-17T02:31:53.629Z,1.01
2017-11-17T02:34:21.182Z,1.02
2017-11-17T02:36:48.777Z,0.94
2017-11-17T02:39:16.373Z,0.83
2017-11-17T02:41:43.990Z,0.88
2017-11-17T02:44:11.550Z,0.91
2017-11-17T02:46:39.123Z,0.92
2017-11-17T02:49:06.744Z,0.97
2017-11-17T02:51:34.771Z,1.03
2017-11-17T02:54:02.833Z,1.02
2017-11-17T02:56:30.425Z,0.97
2017-11-17T02:58:57.990Z,0.97
2017-11-17T03:01:25.571Z,0.96
2017-11-17T03:03:53.195Z,0.99
2017-11-17T03:06:20.750Z,0.93
2017-11-17T03:08:48.305Z,0.95
2017-11-17T03:11:16.104Z,0.98
2017-11-17T03:13:43.682Z,0.92
2017-11-17T03:16:11.299Z,0.86
2017-11-17T03:18:38.890Z,0.91
2017-11-17T03:21:06.566Z,1.00
2017-11-17T03:23:34.453Z,1.06
2017-11-17T03:26:02.235Z,0.98
2017-11-17T03:28:29.890Z,1.00
2017-11-17T03:30:57.578Z,1.14
2017-11-17T03:33:25.158Z,1.07
2017-11-17T03:35:52.840Z,1.12
2017-11-17T03:38:20.441Z,0.98
2017-11-17T03:40:48.040Z,1.06
2017-11-17T03:43:15.642Z,1.06
2017-11-17T03:45:43.262Z,0.95
2017-11-17T03:48:10.863Z,0.91
2017-11-17T03:50:38.431Z,0.93
2017-11-17T03:53:06.116Z,0.97
2017-11-17T03:55:33.723Z,0.94
2017-11-17T03:58:01.301Z,0.87
2017-11-17T04:00:28.923Z,0.79
2017-11-17T04:02:56.487Z,0.82
2017-11-17T04:05:24.066Z,0.90
2017-11-17T04:07:51.690Z,0.85
2017-11-17T04:10:19.285Z,0.84
2017-11-17T04:12:46.852Z,0.82
2017-11-17T04:15:14.484Z,0.85
2017-11-17T04:17:42.047Z,0.88
2017-11-17T04:20:09.610Z,0.82
2017-11-17T04:22:37.218Z,0.87
2017-11-17T04:25:04.829Z,0.86
2017-11-17T04:27:32.392Z,0.85
2017-11-17T04:30:00.019Z,0.82
2017-11-17T04:32:27.578Z,0.82
2017-11-17T04:34:55.128Z,0.92
2017-11-17T04:37:23.158Z,0.91
2017-11-17T04:39:50.722Z,0.90
2017-11-17T04:42:18.277Z,0.97
2017-11-17T04:44:45.853Z,0.92
2017-11-17T04:47:13.424Z,0.91
2017-11-17T04:49:41.052Z,0.92
2017-11-17T04:52:08.675Z,0.91
2017-11-17T04:54:36.240Z,0.97
2017-11-17T04:57:03.819Z,1.02
2017-11-17T04:59:31.379Z,1.01
2017-11-17T05:01:58.944Z,1.00
2017-11-17T05:04:26.561Z,0.98
2017-11-17T05:06:54.108Z,0.98
2017-11-17T05:12:13.672Z,1.11
2017-11-17T05:14:41.264Z,1.17
2017-11-17T05:17:08.880Z,1.19
2017-11-17T05:19:36.519Z,1.03
2017-11-17T05:22:04.075Z,1.02
2017-11-17T05:24:35.242Z,0.95
2017-11-17T05:27:02.842Z,0.96
2017-11-17T05:29:30.411Z,1.04
2017-11-17T05:31:57.985Z,1.07
2017-11-17T05:34:25.582Z,1.04
2017-11-17T05:36:53.153Z,1.02
2017-11-17T05:39:20.714Z,1.08
2017-11-17T05:41:48.287Z,1.03
2017-11-17T05:44:15.853Z,0.98
2017-11-17T05:46:43.445Z,0.96
2017-11-17T05:49:11.038Z,1.00
2017-11-17T05:51:38.588Z,1.05
2017-11-17T05:54:06.300Z,1.06
2017-11-17T05:56:33.853Z,0.99
2017-11-17T05:59:03.258Z,0.98
2017-11-17T06:01:30.867Z,1.02
2017-11-17T06:03:58.428Z,1.01
2017-11-17T06:06:25.987Z,1.04
2017-11-17T06:08:53.616Z,1.05
2017-11-17T06:11:21.168Z,1.04
2017-11-17T06:13:48.723Z,1.15
2017-11-17T06:16:16.382Z,1.09
2017-11-17T06:18:43.937Z,1.04
2017-11-17T06:21:11.641Z,1.02
2017-11-17T06:23:39.246Z,0.97
2017-11-17T06:26:06.815Z,0.92
2017-11-17T06:28:34.380Z,0.94
2017-11-17T06:31:01.948Z,0.95
2017-11-17T06:33:29.822Z,0.91
2017-11-17T06:35:57.433Z,0.92
2017-11-17T06:38:25.056Z,0.90
2017-11-17T06:40:52.675Z,0.87
2017-11-17T06:43:25.126Z,0.90
2017-11-17T06:45:52.693Z,1.02
2017-11-17T06:48:20.412Z,1.08
2017-11-17T06:50:48.047Z,1.08
2017-11-17T06:53:15.606Z,1.09
2017-11-17T06:55:43.235Z,1.12
2017-11-17T06:58:13.742Z,1.23
2017-11-17T07:00:41.288Z,1.25
2017-11-17T07:03:09.120Z,1.20
2017-11-17T07:05:36.734Z,1.21
2017-11-17T07:08:04.302Z,1.15
2017-11-17T07:10:31.872Z,1.26
2017-11-17T07:12:59.804Z,1.28
2017-11-17T07:15:27.404Z,1.24
2017-11-17T07:17:54.953Z,1.23
2017-11-17T07:20:22.562Z,1.29
2017-11-17T07:22:50.117Z,1.29
2017-11-17T07:25:17.670Z,1.36
2017-11-17T07:27:45.268Z,1.41
2017-11-17T07:30:12.827Z,1.45
2017-11-17T07:32:40.378Z,1.42
2017-11-17T07:35:09.507Z,1.46
2017-11-17T07:37:37.080Z,1.45
2017-11-17T07:40:04.626Z,1.45
2017-11-17T07:42:32.247Z,1.54
2017-11-17T07:44:59.829Z,1.56
2017-11-17T07:47:27.646Z,1.59
2017-11-17T07:49:55.235Z,1.72
2017-11-17T07:52:22.807Z,1.67
2017-11-17T07:54:50.355Z,1.71
2017-11-17T07:57:18.095Z,1.67
2017-11-17T07:59:45.655Z,1.72
2017-11-17T08:02:13.295Z,1.72
2017-11-17T08:04:40.889Z,1.76
2017-11-17T08:07:08.677Z,1.70
2017-11-17T08:09:36.958Z,1.56
2017-11-17T08:12:04.525Z,1.56
2017-11-17T08:14:32.103Z,1.52
2017-11-17T08:19:58.763Z,1.59
2017-11-17T08:22:26.384Z,1.58
2017-11-17T08:24:54.041Z,1.62
2017-11-17T08:27:21.624Z,1.59
2017-11-17T08:29:49.181Z,1.52
2017-11-17T08:32:16.763Z,1.60
2017-11-17T08:34:44.324Z,1.58
2017-11-17T08:37:12.260Z,1.59
2017-11-17T08:39:39.894Z,1.53
2017-11-17T08:42:07.457Z,1.57
2017-11-17T08:44:35.093Z,1.69
2017-11-17T08:47:02.708Z,1.81
2017-11-17T08:49:30.257Z,1.73
2017-11-17T08:51:57.814Z,1.77
2017-11-17T08:54:25.410Z,1.85
2017-11-17T08:56:52.975Z,1.94
2017-11-17T08:59:20.572Z,1.93
2017-11-17T09:01:48.152Z,1.94
2017-11-17T09:04:15.808Z,1.97
2017-11-17T09:06:43.397Z,1.95
2017-11-17T09:09:11.190Z,1.90
2017-11-17T09:11:38.793Z,1.93
2017-11-17T09:14:06.350Z,1.91
2017-11-17T09:16:34.029Z,2.01
2017-11-17T09:19:01.582Z,1.87
2017-11-17T09:21:29.135Z,1.85
2017-11-17T09:23:56.758Z,1.89
2017-11-17T09:26:25.118Z,1.92
2017-11-17T09:28:52.702Z,1.93
2017-11-17T09:31:20.287Z,1.87
2017-11-17T09:33:47.879Z,1.90
2017-11-17T09:36:15.436Z,1.92
2017-11-17T09:38:43.057Z,1.93
2017-11-17T09:41:10.622Z,1.95
2017-11-17T09:43:38.191Z,1.95
2017-11-17T09:46:05.838Z,2.04
2017-11-17T09:48:33.423Z,2.07
2017-11-17T09:51:01.048Z,1.97
2017-11-17T09:53:28.664Z,2.05
2017-11-17T09:55:56.260Z,2.03
2017-11-17T09:58:24.319Z,1.96
2017-11-17T10:00:51.989Z,1.93
2017-11-17T10:03:19.575Z,2.02
2017-11-17T10:05:47.147Z,2.01
2017-11-17T10:08:14.793Z,2.04
2017-11-17T10:10:42.365Z,2.01
2017-11-17T10:13:09.963Z,2.02
2017-11-17T10:15:37.681Z,2.13
2017-11-17T10:18:05.443Z,2.13
2017-11-17T10:20:33.020Z,2.16
2017-11-17T10:23:00.611Z,2.27
2017-11-17T10:25:28.256Z,2.27
2017-11-17T10:27:55.858Z,2.28
2017-11-17T10:30:23.447Z,2.26
2017-11-17T10:32:51.049Z,2.31
2017-11-17T10:35:18.640Z,2.44
2017-11-17T10:37:46.190Z,2.38
2017-11-17T10:40:13.849Z,2.34
2017-11-17T10:42:41.404Z,2.43
2017-11-17T10:45:09.121Z,2.41
2017-11-17T10:47:36.828Z,2.46
2017-11-17T10:50:04.408Z,2.35
2017-11-17T10:52:32.035Z,2.34
2017-11-17T10:54:59.613Z,2.39
2017-11-17T10:57:27.175Z,2.38
2017-11-17T10:59:57.710Z,2.40
2017-11-17T11:02:25.289Z,2.48
2017-11-17T11:04:55.742Z,2.49
2017-11-17T11:07:23.332Z,2.37
2017-11-17T11:09:52.078Z,2.54
2017-11-17T11:12:19.968Z,2.57
2017-11-17T11:14:47.999Z,2.60
2017-11-17T11:17:18.209Z,2.73
2017-11-17T11:19:45.842Z,2.60
2017-11-17T11:22:15.164Z,2.60
2017-11-17T11:24:43.012Z,2.54
2017-11-17T11:27:10.809Z,2.49
2017-11-17T11:29:38.679Z,2.52
2017-11-17T11:32:06.277Z,2.36
2017-11-17T11:34:33.857Z,2.34
2017-11-17T11:37:01.472Z,2.39
2017-11-17T11:39:29.082Z,2.27
2017-11-17T11:41:56.751Z,2.25
2017-11-17T11:44:26.072Z,2.10
2017-11-17T11:46:53.688Z,2.03
2017-11-17T11:49:21.250Z,2.11
2017-11-17T11:51:49.125Z,2.28
2017-11-17T11:54:16.924Z,2.25
2017-11-17T11:56:44.563Z,2.28
2017-11-17T11:59:12.309Z,2.27
2017-11-17T12:01:39.926Z,2.26
2017-11-17T12:04:07.547Z,2.17
2017-11-17T12:06:35.112Z,2.30
2017-11-17T12:09:02.725Z,2.26
2017-11-17T12:11:30.361Z,2.26
2017-11-17T12:13:57.917Z,2.26
2017-11-17T12:16:25.498Z,2.23
2017-11-17T12:18:53.111Z,2.23
2017-11-17T12:21:20.744Z,2.30
2017-11-17T12:23:48.309Z,2.02
2017-11-17T12:26:15.907Z,2.04
2017-11-17T12:28:43.473Z,2.11
2017-11-17T12:31:11.304Z,2.15
2017-11-17T12:33:38.879Z,2.28
2017-11-17T12:36:06.625Z,2.13
2017-11-17T12:38:34.185Z,2.20
2017-11-17T12:41:01.762Z,2.13
2017-11-17T12:43:29.325Z,2.21
2017-11-17T12:45:56.895Z,2.12
2017-11-17T12:48:24.840Z,2.28
2017-11-17T12:50:52.422Z,2.26
2017-11-17T12:53:19.993Z,2.20
2017-11-17T12:55:47.599Z,2.20
2017-11-17T12:58:15.402Z,2.24
2017-11-17T13:00:44.025Z,2.06
2017-11-17T13:03:11.874Z,2.11
2017-11-17T13:05:39.431Z,2.15
2017-11-17T13:08:07.038Z,2.16
2017-11-17T13:10:35.368Z,2.17
2017-11-17T13:13:02.948Z,2.28
2017-11-17T13:15:30.549Z,2.18
2017-11-17T13:17:58.205Z,2.21
2017-11-17T13:20:25.770Z,2.22
2017-11-17T13:22:53.382Z,2.26
2017-11-17T13:25:21.019Z,2.11
2017-11-17T13:27:48.612Z,2.08
2017-11-17T13:30:16.199Z,2.02
2017-11-17T13:32:43.813Z,2.08
2017-11-17T13:35:11.575Z,2.13
2017-11-17T13:37:39.168Z,2.03
2017-11-17T13:40:06.808Z,2.04
2017-11-17T13:42:35.962Z,1.97
2017-11-17T13:45:04.289Z,2.11
2017-11-17T13:47:33.023Z,2.22
2017-11-17T13:50:00.630Z,2.20
2017-11-17T13:52:28.210Z,2.24
2017-11-17T13:54:55.796Z,2.13
2017-11-17T13:57:23.381Z,2.11
2017-11-17T13:59:50.953Z,2.12
2017-11-17T14:02:18.549Z,2.26
2017-11-17T14:04:46.112Z,2.21
2017-11-17T14:07:13.682Z,2.18
2017-11-17T14:09:41.345Z,2.33
2017-11-17T14:12:09.045Z,2.15
2017-11-17T14:14:36.636Z,2.12
2017-11-17T14:17:04.236Z,2.11
2017-11-17T14:19:31.794Z,2.10
2017-11-17T14:21:59.361Z,2.16
2017-11-17T14:24:26.965Z,2.15
2017-11-17T14:26:54.514Z,2.19
2017-11-17T14:29:22.112Z,2.30
2017-11-17T14:31:49.900Z,2.24
2017-11-17T14:34:17.517Z,2.36
2017-11-17T14:36:45.092Z,2.44
2017-11-17T14:39:12.937Z,2.36
2017-11-17T14:41:40.527Z,2.26
2017-11-17T14:44:08.111Z,2.13
2017-11-17T14:46:35.671Z,2.04
2017-11-17T14:49:03.261Z,2.15
2017-11-17T14:51:31.309Z,2.09
2017-11-17T14:53:58.893Z,2.15
2017-11-17T14:56:26.454Z,2.10
2017-11-17T14:58:54.036Z,2.06
2017-11-17T15:01:21.650Z,2.02
2017-11-17T15:03:49.244Z,1.98
2017-11-17T15:06:16.844Z,2.05
2017-11-17T15:08:44.437Z,1.98
2017-11-17T15:11:13.790Z,2.02
2017-11-17T15:13:42.555Z,2.04
2017-11-17T15:16:10.236Z,2.01
2017-11-17T15:18:37.875Z,2.01
2017-11-17T15:21:08.109Z,2.02
2017-11-17T15:23:36.455Z,2.02
2017-11-17T15:26:04.071Z,2.05
2017-11-17T15:28:31.647Z,2.04
2017-11-17T15:30:59.259Z,2.02
2017-11-17T15:33:27.465Z,2.04
2017-11-17T15:35:55.054Z,2.00
2017-11-17T15:38:22.659Z,2.05
2017-11-17T15:40:50.263Z,2.09
2017-11-17T15:43:19.234Z,2.15
2017-11-17T15:45:46.991Z,2.21
2017-11-17T15:48:14.638Z,2.22
2017-11-17T15:50:42.205Z,2.29
2017-11-17T15:53:09.803Z,2.32
2017-11-17T15:55:39.139Z,2.32
2017-11-17T15:58:06.792Z,2.30
2017-11-17T16:00:34.412Z,2.27
2017-11-17T16:03:03.124Z,2.25
2017-11-17T16:05:31.514Z,2.17
2017-11-17T16:07:59.215Z,2.28
2017-11-17T16:10:26.810Z,2.24
2017-11-17T16:12:54.400Z,2.23
2017-11-17T16:15:22.008Z,2.25
2017-11-17T16:17:49.587Z,2.36
2017-11-17T16:20:17.241Z,2.22
2017-11-17T16:22:44.824Z,2.27
2017-11-17T16:25:13.845Z,2.29
2017-11-17T16:27:41.452Z,2.21
2017-11-17T16:30:09.086Z,2.21
2017-11-17T16:32:36.670Z,2.23
2017-11-17T16:35:04.337Z,2.16
2017-11-17T16:37:31.997Z,2.16
2017-11-17T16:39:59.663Z,2.18
2017-11-17T16:42:27.273Z,2.19
2017-11-17T16:44:54.875Z,2.12
2017-11-17T16:47:22.466Z,2.11
2017-11-17T16:49:50.052Z,2.16
2017-11-17T16:52:17.617Z,2.08
2017-11-17T16:54:45.229Z,2.10
2017-11-17T16:57:12.862Z,2.06
2017-11-17T16:59:40.479Z,2.06
2017-11-17T17:02:08.123Z,2.09
2017-11-17T17:04:35.698Z,2.18
2017-11-17T17:07:03.266Z,2.11
2017-11-17T17:09:30.891Z,2.16
2017-11-17T17:11:58.456Z,2.15
2017-11-17T17:14:26.038Z,2.19
2017-11-17T17:16:53.724Z,2.22
2017-11-17T17:19:21.297Z,2.26
2017-11-17T17:21:48.860Z,2.28
2017-11-17T17:24:16.469Z,2.37
2017-11-17T17:26:44.042Z,2.34
2017-11-17T17:29:12.643Z,2.21
2017-11-17T17:31:40.323Z,2.24
2017-11-17T17:34:08.129Z,2.23
2017-11-17T17:36:35.706Z,2.16
2017-11-17T17:39:03.380Z,2.21
2017-11-17T17:41:30.931Z,2.27
2017-11-17T17:43:58.534Z,2.21
2017-11-17T17:46:26.112Z,2.18
2017-11-17T17:48:53.781Z,2.20
2017-11-17T17:51:21.393Z,2.21
2017-11-17T17:53:49.061Z,2.15
2017-11-17T17:56:16.709Z,2.11
2017-11-17T17:58:44.324Z,2.17
2017-11-17T18:01:12.018Z,2.20
2017-11-17T18:03:39.590Z,2.20
2017-11-17T18:06:07.221Z,2.28
2017-11-17T18:08:34.872Z,2.31
2017-11-17T18:11:02.430Z,2.23
2017-11-17T18:13:30.044Z,2.20
2017-11-17T18:15:57.659Z,2.24
2017-11-17T18:18:25.252Z,2.21
2017-11-17T18:20:52.840Z,2.23
2017-11-17T18:23:20.545Z,2.25
2017-11-17T18:25:49.480Z,2.29
2017-11-17T18:28:17.136Z,2.26
2017-11-17T18:30:44.753Z,2.27
2017-11-17T18:33:12.499Z,2.28
2017-11-17T18:35:40.066Z,2.23
2017-11-17T18:38:07.721Z,2.26
2017-11-17T18:40:35.248Z,2.24
2017-11-17T18:43:02.838Z,2.24
2017-11-17T18:45:30.430Z,2.26
2017-11-17T18:47:57.987Z,2.26
2017-11-17T18:50:25.762Z,2.21
2017-11-17T18:55:25.130Z,2.22
2017-11-17T18:57:52.694Z,2.22
2017-11-17T19:00:20.300Z,2.30
2017-11-17T19:02:47.891Z,2.31
2017-11-17T19:05:15.474Z,2.32
2017-11-17T19:07:43.051Z,2.29
2017-11-17T19:10:10.742Z,2.35
2017-11-17T19:12:38.322Z,2.31
2017-11-17T19:15:06.023Z,2.21
2017-11-17T19:17:33.597Z,2.22
2017-11-17T19:20:01.188Z,2.29
2017-11-17T19:22:28.751Z,2.33
2017-11-17T19:24:56.822Z,2.28
2017-11-17T19:27:24.451Z,2.29
2017-11-17T19:29:53.640Z,2.26
2017-11-17T19:32:21.408Z,2.27
2017-11-17T19:34:48.986Z,2.25
2017-11-17T19:37:16.558Z,2.26
2017-11-17T19:39:44.167Z,2.25
2017-11-17T19:42:11.729Z,2.15
2017-11-17T19:44:39.295Z,2.20
2017-11-17T19:47:06.983Z,2.23
2017-11-17T19:49:34.536Z,2.23
2017-11-17T19:52:02.106Z,2.23
2017-11-17T19:54:29.756Z,2.24
2017-11-17T19:56:57.327Z,2.21
2017-11-17T19:59:26.472Z,2.23
2017-11-17T20:01:54.026Z,2.25
2017-11-17T20:04:21.610Z,2.25
2017-11-17T20:06:49.154Z,2.23
2017-11-17T20:09:16.736Z,2.22
2017-11-17T20:11:44.318Z,2.24
2017-11-17T20:14:11.881Z,2.24
2017-11-17T20:16:39.443Z,2.26
2017-11-17T20:19:07.039Z,2.25
2017-11-17T20:21:34.598Z,2.27
2017-11-17T20:24:02.164Z,2.27
2017-11-17T20:26:29.723Z,2.20
2017-11-17T20:28:57.313Z,2.20
2017-11-17T20:31:24.880Z,2.23
2017-11-17T20:33:52.553Z,2.25
2017-11-17T20:36:21.347Z,2.25
2017-11-17T20:38:48.950Z,2.28
2017-11-17T20:41:16.528Z,2.26
2017-11-17T20:43:44.193Z,2.28
2017-11-17T20:46:11.823Z,2.24
2017-11-17T20:48:39.392Z,2.21
2017-11-17T20:51:07.015Z,2.21
2017-11-17T20:53:34.716Z,2.23
2017-11-17T20:56:02.314Z,2.24
2017-11-17T20:58:29.915Z,2.22
2017-11-17T21:00:57.488Z,2.20
2017-11-17T21:03:25.087Z,2.25
2017-11-17T21:05:52.764Z,2.24
2017-11-17T21:08:21.348Z,2.21
2017-11-17T21:10:49.018Z,2.27
2017-11-17T21:13:16.616Z,2.23
2017-11-17T21:15:44.236Z,2.23
2017-11-17T21:18:11.835Z,2.23
2017-11-17T21:20:39.590Z,2.24
2017-11-17T21:23:07.225Z,2.26
2017-11-17T21:25:34.874Z,2.21
2017-11-17T21:28:02.490Z,2.13
2017-11-17T21:30:30.879Z,2.20
2017-11-17T21:32:58.447Z,2.20
2017-11-17T21:35:26.033Z,2.16
2017-11-17T21:37:53.611Z,2.19
2017-11-17T21:40:21.212Z,2.21
2017-11-17T21:42:48.868Z,2.21
2017-11-17T21:45:16.951Z,2.18
2017-11-17T21:47:44.502Z,2.15
2017-11-17T21:50:12.320Z,2.13
2017-11-17T21:52:39.907Z,2.15
2017-11-17T21:55:07.556Z,2.16
2017-11-17T21:57:35.322Z,2.11
2017-11-17T22:00:03.013Z,2.10
2017-11-17T22:02:30.602Z,2.12
2017-11-17T22:04:58.227Z,2.08
2017-11-17T22:07:25.955Z,2.08
2017-11-17T22:09:53.560Z,2.07
2017-11-17T22:12:21.160Z,2.12
2017-11-17T22:14:48.700Z,2.14
2017-11-17T22:17:16.683Z,2.14
2017-11-17T22:19:44.327Z,2.14
2017-11-17T22:22:11.936Z,2.11
2017-11-17T22:24:39.492Z,2.12
2017-11-17T22:27:07.292Z,2.05
2017-11-17T22:29:34.836Z,2.26
2017-11-17T22:32:02.385Z,2.19
2017-11-17T22:34:29.966Z,2.23
2017-11-17T22:36:57.510Z,2.46
2017-11-17T22:39:25.073Z,2.67
2017-11-17T22:41:52.662Z,2.71
2017-11-17T22:44:20.222Z,2.65
2017-11-17T22:46:47.773Z,2.63
2017-11-17T22:49:15.373Z,2.68
2017-11-17T22:51:42.948Z,2.68
2017-11-17T22:54:10.628Z,2.77
2017-11-17T22:56:38.205Z,2.75
2017-11-17T22:59:05.765Z,2.77
2017-11-17T23:01:34.790Z,2.83
2017-11-17T23:04:02.514Z,2.82
2017-11-17T23:06:30.085Z,2.83
2017-11-17T23:08:57.684Z,2.83
2017-11-17T23:11:25.325Z,2.85
2017-11-17T23:13:52.895Z,2.75
2017-11-17T23:16:20.480Z,2.78
2017-11-17T23:18:48.132Z,2.74
2017-11-17T23:21:15.707Z,2.76
2017-11-17T23:23:43.296Z,2.72
2017-11-17T23:26:10.895Z,2.66
2017-11-17T23:28:38.458Z,2.45
2017-11-17T23:31:06.125Z,2.50
2017-11-17T23:33:33.816Z,2.56
2017-11-17T23:36:01.394Z,2.67
2017-11-17T23:38:28.980Z,2.77
2017-11-17T23:40:56.575Z,2.69
2017-11-17T23:43:24.252Z,2.71
2017-11-17T23:45:51.854Z,2.70
2017-11-17T23:48:19.456Z,2.65
2017-11-17T23:50:47.062Z,2.66
2017-11-17T23:53:14.703Z,2.62
2017-11-17T23:55:42.320Z,2.61
2017-11-17T23:58:10.868Z,2.55
